createdAt,value
2019-04-04T00:00:27.504Z,96.40
2019-04-04T00:02:55.570Z,96.60
2019-04-04T00:05:25.611Z,96.70
2019-04-04T00:07:53.583Z,96.30
2019-04-04T00:10:21.480Z,96.10
2019-04-04T00:12:49.417Z,96.40
2019-04-04T00:15:17.359Z,96.40
2019-04-04T00:17:45.307Z,96.50
2019-04-04T00:20:13.345Z,96.40
2019-04-04T00:22:41.289Z,96.10
2019-04-04T00:25:10.402Z,96.20
2019-04-04T00:27:38.507Z,96.40
2019-04-04T00:30:07.047Z,96.80
2019-04-04T00:32:34.966Z,96.80
2019-04-04T00:35:02.980Z,97.00
2019-04-04T00:37:30.899Z,97.10
2019-04-04T00:39:58.806Z,97.20
2019-04-04T00:42:26.656Z,97.20
2019-04-04T00:44:55.732Z,97.10
2019-04-04T00:47:24.216Z,97.10
2019-04-04T00:50:00.303Z,97.40
2019-04-04T00:52:32.776Z,97.20
2019-04-04T00:55:08.431Z,96.90
2019-04-04T00:57:40.231Z,97.00
2019-04-04T01:00:14.331Z,97.20
2019-04-04T01:02:59.013Z,96.90
2019-04-04T01:05:34.029Z,96.60
2019-04-04T01:08:10.211Z,96.90
2019-04-04T01:10:44.240Z,96.80
2019-04-04T01:13:15.567Z,97.20
2019-04-04T01:15:44.420Z,96.90
2019-04-04T01:18:13.508Z,96.90
2019-04-04T01:20:41.657Z,96.90
2019-04-04T01:23:09.709Z,97.10
2019-04-04T01:25:46.489Z,97.10
2019-04-04T01:28:14.418Z,97.30
2019-04-04T01:30:43.685Z,96.80
2019-04-04T01:33:12.292Z,96.70
2019-04-04T01:35:40.211Z,96.80
2019-04-04T01:38:08.207Z,97.10
2019-04-04T01:40:36.180Z,96.80
2019-04-04T01:43:04.354Z,96.90
2019-04-04T01:45:32.360Z,96.80
2019-04-04T01:48:00.318Z,97.00
2019-04-04T01:50:28.258Z,96.80
2019-04-04T01:52:58.818Z,96.90
2019-04-04T01:55:26.370Z,96.90
2019-04-04T01:57:54.594Z,97.00
2019-04-04T02:00:24.039Z,96.80
2019-04-04T02:02:52.535Z,96.80
2019-04-04T02:05:21.646Z,96.20
2019-04-04T02:07:50.092Z,96.10
2019-04-04T02:10:18.261Z,96.10
2019-04-04T02:12:46.197Z,96.70
2019-04-04T02:15:14.844Z,96.70
2019-04-04T02:17:43.092Z,96.20
2019-04-04T02:20:11.224Z,96.40
2019-04-04T02:22:39.206Z,96.20
2019-04-04T02:25:08.075Z,96.20
2019-04-04T02:27:37.901Z,96.00
2019-04-04T02:30:06.901Z,95.80
2019-04-04T02:32:34.990Z,96.10
2019-04-04T02:35:03.267Z,96.10
2019-04-04T02:37:31.315Z,96.20
2019-04-04T02:39:59.312Z,95.90
2019-04-04T02:42:27.667Z,95.90
2019-04-04T02:44:55.670Z,96.20
2019-04-04T02:47:23.695Z,96.20
2019-04-04T02:49:51.691Z,96.20
2019-04-04T02:52:19.860Z,96.10
2019-04-04T02:54:47.925Z,96.40
2019-04-04T02:57:16.470Z,96.50
2019-04-04T02:59:52.842Z,96.20
2019-04-04T03:02:19.799Z,96.40
2019-04-04T03:04:47.981Z,96.40
2019-04-04T03:07:16.058Z,96.20
2019-04-04T03:09:44.114Z,96.00
2019-04-04T03:12:12.106Z,96.30
2019-04-04T03:14:40.167Z,96.40
2019-04-04T03:17:08.232Z,96.50
2019-04-04T03:19:36.202Z,96.00
2019-04-04T03:22:04.161Z,95.70
2019-04-04T03:24:32.139Z,96.00
2019-04-04T03:27:00.331Z,95.50
2019-04-04T03:29:29.051Z,95.80
2019-04-04T03:31:57.628Z,96.00
2019-04-04T03:34:25.726Z,96.20
2019-04-04T03:36:53.776Z,95.90
2019-04-04T03:39:21.702Z,95.60
2019-04-04T03:41:49.748Z,95.70
2019-04-04T03:44:19.904Z,95.50
2019-04-04T03:46:47.571Z,95.70
2019-04-04T03:49:15.617Z,95.70
2019-04-04T03:51:43.566Z,95.60
2019-04-04T03:54:14.928Z,95.70
2019-04-04T03:56:43.070Z,95.70
2019-04-04T03:59:11.055Z,96.20
2019-04-04T04:01:39.247Z,96.20
2019-04-04T04:04:07.300Z,95.90
2019-04-04T04:06:35.298Z,96.20
2019-04-04T04:09:05.855Z,96.30
2019-04-04T04:11:34.660Z,96.20
2019-04-04T04:14:04.137Z,96.30
2019-04-04T04:16:34.917Z,96.30
2019-04-04T04:19:02.235Z,96.50
2019-04-04T04:21:30.368Z,96.60
2019-04-04T04:23:58.489Z,96.30
2019-04-04T04:26:26.683Z,95.80
2019-04-04T04:28:54.699Z,95.40
2019-04-04T04:31:22.688Z,95.50
2019-04-04T04:33:50.697Z,95.00
2019-04-04T04:36:18.849Z,95.20
2019-04-04T04:38:46.797Z,96.00
2019-04-04T04:41:14.911Z,96.00
2019-04-04T04:43:42.873Z,96.10
2019-04-04T04:46:10.857Z,96.10
2019-04-04T04:48:38.982Z,95.90
2019-04-04T04:51:07.163Z,95.10
2019-04-04T04:53:35.155Z,95.10
2019-04-04T04:56:08.874Z,95.20
2019-04-04T04:58:37.429Z,94.90
2019-04-04T05:01:19.182Z,95.10
2019-04-04T05:03:47.376Z,95.10
2019-04-04T05:06:16.394Z,95.20
2019-04-04T05:08:45.898Z,95.40
2019-04-04T05:11:14.614Z,95.80
2019-04-04T05:13:43.310Z,95.20
2019-04-04T05:16:13.098Z,95.00
2019-04-04T05:18:41.985Z,95.10
2019-04-04T05:21:10.034Z,95.90
2019-04-04T05:23:38.429Z,96.00
2019-04-04T05:26:09.577Z,95.80
2019-04-04T05:28:37.036Z,95.80
2019-04-04T05:31:05.185Z,95.80
2019-04-04T05:33:33.277Z,95.60
2019-04-04T05:36:01.240Z,95.40
2019-04-04T05:38:29.311Z,95.40
2019-04-04T05:40:57.390Z,95.40
2019-04-04T05:43:25.457Z,95.60
2019-04-04T05:45:53.481Z,95.60
2019-04-04T05:48:21.564Z,95.20
2019-04-04T05:50:49.945Z,95.10
2019-04-04T05:53:17.976Z,94.90
2019-04-04T05:55:46.015Z,94.70
2019-04-04T05:58:14.066Z,94.90
2019-04-04T06:00:45.124Z,94.50
2019-04-04T06:03:15.167Z,94.30
2019-04-04T06:05:45.887Z,94.40
2019-04-04T06:08:14.477Z,94.80
2019-04-04T06:10:42.843Z,94.70
2019-04-04T06:13:10.825Z,94.70
2019-04-04T06:15:38.952Z,94.50
2019-04-04T06:18:06.906Z,94.30
2019-04-04T06:20:34.878Z,94.10
2019-04-04T06:23:02.833Z,94.20
2019-04-04T06:25:34.331Z,94.40
2019-04-04T06:28:01.031Z,94.40
2019-04-04T06:30:42.260Z,94.30
2019-04-04T06:32:59.204Z,94.60
2019-04-04T06:35:27.194Z,94.70
2019-04-04T06:37:55.188Z,94.70
2019-04-04T06:40:24.012Z,94.50
2019-04-04T06:42:52.980Z,94.40
2019-04-04T06:45:21.137Z,94.30
2019-04-04T06:47:50.517Z,93.80
2019-04-04T06:50:18.734Z,94.10
2019-04-04T06:52:48.266Z,94.20
2019-04-04T06:55:16.739Z,93.60
2019-04-04T06:57:47.540Z,93.80
2019-04-04T07:00:16.505Z,94.00
2019-04-04T07:02:47.157Z,93.90
2019-04-04T07:05:14.685Z,93.80
2019-04-04T07:07:43.863Z,93.90
2019-04-04T07:10:12.559Z,94.40
2019-04-04T07:12:40.686Z,94.40
2019-04-04T07:15:12.480Z,94.70
2019-04-04T07:17:41.194Z,94.60
2019-04-04T07:20:09.415Z,94.90
2019-04-04T07:22:37.459Z,94.60
2019-04-04T07:25:06.918Z,94.50
2019-04-04T07:27:35.048Z,94.80
2019-04-04T07:30:03.533Z,95.10
2019-04-04T07:32:32.859Z,94.30
2019-04-04T07:35:00.924Z,94.10
2019-04-04T07:37:28.982Z,93.80
2019-04-04T07:39:56.968Z,93.60
2019-04-04T07:42:30.485Z,93.70
2019-04-04T07:44:58.666Z,93.50
2019-04-04T07:47:46.660Z,93.30
2019-04-04T07:50:13.166Z,93.50
2019-04-04T07:52:42.251Z,93.50
2019-04-04T07:55:11.022Z,93.40
2019-04-04T07:57:40.178Z,94.20
2019-04-04T08:00:49.360Z,93.70
2019-04-04T08:03:44.615Z,93.70
2019-04-04T08:06:12.574Z,93.40
2019-04-04T08:08:40.779Z,93.30
2019-04-04T08:11:09.079Z,93.00
2019-04-04T08:13:37.163Z,92.10
2019-04-04T08:16:05.810Z,92.30
2019-04-04T08:19:38.116Z,92.40
2019-04-04T08:22:08.365Z,91.90
2019-04-04T08:24:36.432Z,91.70
2019-04-04T08:27:04.807Z,91.90
2019-04-04T08:29:32.948Z,91.90
2019-04-04T08:32:01.036Z,92.20
2019-04-04T08:34:29.547Z,91.70
2019-04-04T08:36:57.743Z,91.10
2019-04-04T08:39:25.729Z,90.60
2019-04-04T08:41:53.881Z,89.80
2019-04-04T08:44:22.116Z,89.60
2019-04-04T08:46:50.307Z,89.80
2019-04-04T08:49:18.534Z,89.70
2019-04-04T08:51:47.397Z,90.50
2019-04-04T08:54:16.311Z,90.70
2019-04-04T08:56:44.418Z,90.20
2019-04-04T08:59:13.775Z,90.10
2019-04-04T09:01:41.842Z,89.60
2019-04-04T09:04:09.875Z,89.70
2019-04-04T09:06:39.643Z,89.20
2019-04-04T09:09:07.926Z,87.80
2019-04-04T09:11:36.495Z,88.70
2019-04-04T09:14:07.290Z,87.50
2019-04-04T09:16:35.711Z,86.60
2019-04-04T09:19:09.198Z,86.10
2019-04-04T09:21:37.665Z,86.50
2019-04-04T09:24:05.812Z,85.70
2019-04-04T09:26:37.183Z,85.90
2019-04-04T09:29:05.181Z,85.30
2019-04-04T09:31:33.182Z,86.00
2019-04-04T09:34:01.731Z,86.10
2019-04-04T09:36:34.079Z,84.80
2019-04-04T09:39:05.024Z,83.30
2019-04-04T09:41:34.439Z,84.80
2019-04-04T09:44:05.724Z,85.40
2019-04-04T09:46:32.543Z,83.20
2019-04-04T09:49:01.729Z,83.30
2019-04-04T09:51:29.850Z,82.20
2019-04-04T09:53:58.189Z,81.20
2019-04-04T09:56:26.182Z,80.80
2019-04-04T09:58:55.033Z,80.40
2019-04-04T10:01:23.219Z,79.80
2019-04-04T10:03:51.518Z,78.40
2019-04-04T10:06:20.573Z,78.80
2019-04-04T10:08:49.275Z,78.40
2019-04-04T10:11:19.380Z,78.10
2019-04-04T10:13:47.604Z,79.60
2019-04-04T10:16:15.618Z,77.50
2019-04-04T10:18:43.833Z,78.20
2019-04-04T10:21:12.636Z,78.50
2019-04-04T10:23:40.991Z,76.60
2019-04-04T10:26:12.266Z,77.50
2019-04-04T10:28:40.275Z,78.00
2019-04-04T10:31:08.767Z,77.20
2019-04-04T10:33:36.879Z,77.10
2019-04-04T10:36:05.048Z,77.80
2019-04-04T10:38:33.297Z,79.70
2019-04-04T10:41:01.509Z,77.50
2019-04-04T10:43:29.534Z,76.70
2019-04-04T10:45:57.664Z,77.90
2019-04-04T10:48:25.942Z,76.00
2019-04-04T10:50:54.340Z,75.30
2019-04-04T10:53:22.386Z,75.50
2019-04-04T10:55:50.331Z,75.40
2019-04-04T10:58:20.174Z,76.40
2019-04-04T11:00:48.232Z,74.70
2019-04-04T11:03:16.276Z,74.40
2019-04-04T11:05:44.705Z,75.10
2019-04-04T11:08:12.967Z,75.30
2019-04-04T11:10:40.964Z,75.20
2019-04-04T11:13:09.589Z,75.00
2019-04-04T11:15:37.667Z,74.70
2019-04-04T11:18:06.651Z,75.10
2019-04-04T11:20:34.742Z,75.20
2019-04-04T11:23:02.850Z,74.60
2019-04-04T11:25:30.918Z,75.10
2019-04-04T11:27:58.970Z,72.80
2019-04-04T11:30:27.049Z,73.80
2019-04-04T11:32:55.111Z,73.40
2019-04-04T11:35:23.235Z,74.60
2019-04-04T11:37:51.479Z,74.10
2019-04-04T11:40:19.628Z,75.90
2019-04-04T11:42:47.628Z,76.00
2019-04-04T11:45:15.589Z,75.70
2019-04-04T11:47:43.536Z,74.30
2019-04-04T11:50:11.847Z,75.10
2019-04-04T11:52:39.898Z,74.10
2019-04-04T11:55:07.826Z,73.80
2019-04-04T11:57:36.424Z,74.70
2019-04-04T12:00:05.209Z,74.70
2019-04-04T12:02:33.270Z,75.80
2019-04-04T12:05:01.618Z,76.60
2019-04-04T12:07:30.586Z,75.50
2019-04-04T12:10:07.468Z,75.60
2019-04-04T12:12:28.771Z,76.30
2019-04-04T12:14:56.749Z,74.10
2019-04-04T12:17:24.750Z,74.10
2019-04-04T12:19:52.723Z,74.70
2019-04-04T12:22:20.865Z,76.70
2019-04-04T12:24:49.650Z,77.40
2019-04-04T12:27:18.315Z,78.40
2019-04-04T12:29:46.342Z,78.90
2019-04-04T12:32:14.441Z,78.70
2019-04-04T12:34:42.409Z,79.10
2019-04-04T12:37:10.372Z,78.40
2019-04-04T12:39:38.401Z,80.10
2019-04-04T12:42:06.599Z,80.10
2019-04-04T12:44:34.559Z,78.40
2019-04-04T12:47:03.667Z,78.70
2019-04-04T12:49:31.698Z,78.50
2019-04-04T12:51:59.698Z,79.00
2019-04-04T12:54:27.716Z,79.30
2019-04-04T12:56:55.803Z,79.30
2019-04-04T12:59:23.990Z,78.70
2019-04-04T13:01:52.200Z,77.60
2019-04-04T13:04:31.151Z,77.30
2019-04-04T13:06:50.131Z,77.90
2019-04-04T13:09:18.441Z,78.50
2019-04-04T13:11:46.631Z,78.80
2019-04-04T13:14:14.840Z,78.20
2019-04-04T13:16:42.908Z,78.70
2019-04-04T13:19:10.898Z,78.40
2019-04-04T13:21:39.092Z,78.30
2019-04-04T13:24:07.520Z,78.20
2019-04-04T13:26:35.750Z,78.60
2019-04-04T13:29:04.045Z,79.60
2019-04-04T13:31:32.236Z,79.70
2019-04-04T13:34:00.421Z,81.70
2019-04-04T13:36:28.448Z,84.60
2019-04-04T13:38:56.541Z,86.80
2019-04-04T13:41:25.024Z,88.30
2019-04-04T13:43:54.370Z,90.10
2019-04-04T13:46:28.095Z,90.70
2019-04-04T13:48:55.414Z,91.30
2019-04-04T13:51:25.559Z,92.20
2019-04-04T13:53:53.746Z,91.90
2019-04-04T13:56:22.204Z,92.80
2019-04-04T13:58:50.244Z,93.10
2019-04-04T14:01:18.271Z,93.20
2019-04-04T14:03:46.351Z,93.40
2019-04-04T14:06:14.904Z,93.00
2019-04-04T14:08:45.680Z,92.60
2019-04-04T14:11:13.109Z,92.80
2019-04-04T14:13:41.187Z,92.10
2019-04-04T14:16:09.222Z,92.20
2019-04-04T14:18:39.900Z,92.60
2019-04-04T14:21:07.468Z,92.30
2019-04-04T14:23:38.590Z,92.80
2019-04-04T14:26:06.878Z,92.40
2019-04-04T14:28:36.143Z,91.90
2019-04-04T14:31:04.965Z,92.00
2019-04-04T14:33:34.012Z,91.90
2019-04-04T14:36:02.357Z,92.00
2019-04-04T14:38:30.586Z,91.10
2019-04-04T14:41:10.690Z,91.30
2019-04-04T14:43:29.971Z,90.80
2019-04-04T14:45:58.529Z,90.80
2019-04-04T14:48:26.991Z,90.30
2019-04-04T14:50:55.167Z,89.40
2019-04-04T14:53:24.127Z,87.70
2019-04-04T14:55:53.787Z,86.70
2019-04-04T14:58:21.976Z,86.00
2019-04-04T15:00:50.160Z,84.70
2019-04-04T15:03:18.427Z,82.60
2019-04-04T15:05:46.641Z,82.50
2019-04-04T15:08:14.889Z,81.30
2019-04-04T15:10:43.026Z,81.90
2019-04-04T15:13:11.219Z,81.30
2019-04-04T15:16:11.072Z,82.30
2019-04-04T15:18:47.051Z,82.80
2019-04-04T15:21:16.376Z,79.80
2019-04-04T15:23:44.826Z,77.80
2019-04-04T15:26:13.133Z,77.30
2019-04-04T15:28:45.036Z,78.40
2019-04-04T15:31:13.050Z,77.30
2019-04-04T15:33:41.113Z,77.10
2019-04-04T15:36:09.483Z,77.20
2019-04-04T15:38:37.645Z,77.30
2019-04-04T15:41:06.063Z,77.50
2019-04-04T15:43:34.616Z,76.50
2019-04-04T15:46:02.765Z,77.30
2019-04-04T15:48:30.962Z,77.30
2019-04-04T15:50:59.000Z,77.20
2019-04-04T15:53:27.185Z,76.20
2019-04-04T15:55:55.230Z,74.80
2019-04-04T15:58:23.521Z,75.90
2019-04-04T16:00:51.951Z,76.00
2019-04-04T16:03:20.163Z,76.20
2019-04-04T16:05:48.258Z,75.20
2019-04-04T16:08:16.518Z,74.00
2019-04-04T16:10:44.848Z,72.40
2019-04-04T16:13:13.215Z,72.90
2019-04-04T16:15:41.513Z,72.60
2019-04-04T16:18:09.917Z,72.90
2019-04-04T16:20:38.275Z,73.40
2019-04-04T16:23:06.895Z,73.40
2019-04-04T16:25:35.428Z,73.80
2019-04-04T16:28:04.257Z,73.00
2019-04-04T16:30:32.553Z,73.50
2019-04-04T16:33:01.666Z,74.80
2019-04-04T16:35:29.779Z,76.70
2019-04-04T16:37:57.969Z,77.00
2019-04-04T16:40:26.333Z,76.90
2019-04-04T16:42:54.525Z,78.00
2019-04-04T16:45:22.852Z,78.50
2019-04-04T16:47:51.101Z,79.50
2019-04-04T16:50:19.274Z,79.60
2019-04-04T16:52:47.490Z,80.30
2019-04-04T16:55:16.118Z,81.40
2019-04-04T16:57:44.183Z,80.90
2019-04-04T17:00:16.862Z,83.40
2019-04-04T17:02:45.041Z,87.20
2019-04-04T17:05:13.383Z,87.40
2019-04-04T17:07:41.890Z,85.70
2019-04-04T17:10:10.651Z,85.90
2019-04-04T17:12:39.602Z,86.80
2019-04-04T17:15:08.350Z,87.50
2019-04-04T17:17:36.571Z,88.70
2019-04-04T17:20:06.116Z,88.00
2019-04-04T17:22:34.587Z,88.30
2019-04-04T17:25:02.966Z,88.00
2019-04-04T17:27:32.269Z,85.20
2019-04-04T17:30:00.564Z,85.00
2019-04-04T17:32:28.685Z,87.60
2019-04-04T17:34:57.102Z,90.30
2019-04-04T17:37:25.773Z,90.30
2019-04-04T17:39:54.596Z,90.70
2019-04-04T17:42:30.131Z,88.50
2019-04-04T17:44:53.626Z,88.80
2019-04-04T17:47:22.434Z,88.60
2019-04-04T17:49:50.674Z,87.50
2019-04-04T17:52:19.440Z,87.70
2019-04-04T17:54:47.856Z,86.90
2019-04-04T17:57:16.792Z,87.20
2019-04-04T17:59:45.028Z,87.60
2019-04-04T18:02:13.284Z,89.00
2019-04-04T18:04:48.575Z,88.70
2019-04-04T18:07:13.045Z,88.90
2019-04-04T18:09:41.446Z,89.50
2019-04-04T18:12:09.649Z,87.40
2019-04-04T18:14:37.851Z,86.40
2019-04-04T18:17:06.172Z,85.30
2019-04-04T18:19:34.264Z,85.30
2019-04-04T18:22:02.595Z,84.50
2019-04-04T18:24:30.924Z,83.90
2019-04-04T18:26:59.418Z,83.00
2019-04-04T18:29:27.736Z,83.90
2019-04-04T18:31:56.109Z,84.30
2019-04-04T18:34:24.549Z,84.60
2019-04-04T18:36:53.057Z,84.90
2019-04-04T18:39:21.380Z,86.00
2019-04-04T18:41:49.870Z,86.10
2019-04-04T18:44:18.487Z,86.20
2019-04-04T18:46:47.180Z,86.40
2019-04-04T18:49:15.485Z,86.00
2019-04-04T18:51:44.024Z,86.90
2019-04-04T18:54:12.080Z,86.30
2019-04-04T18:56:40.375Z,85.90
2019-04-04T18:59:08.690Z,86.50
2019-04-04T19:01:37.041Z,87.30
2019-04-04T19:04:05.232Z,88.10
2019-04-04T19:06:33.342Z,86.10
2019-04-04T19:09:14.358Z,85.80
2019-04-04T19:11:34.959Z,85.50
2019-04-04T19:14:03.401Z,86.50
2019-04-04T19:16:31.683Z,86.50
2019-04-04T19:19:00.402Z,86.10
2019-04-04T19:21:28.622Z,87.20
2019-04-04T19:23:57.076Z,86.80
2019-04-04T19:26:25.498Z,88.40
2019-04-04T19:28:53.705Z,88.30
2019-04-04T19:31:23.247Z,88.10
2019-04-04T19:33:51.519Z,88.00
2019-04-04T19:36:19.944Z,89.40
2019-04-04T19:38:48.130Z,89.40
2019-04-04T19:41:16.258Z,89.70
2019-04-04T19:43:44.438Z,90.00
2019-04-04T19:46:12.647Z,90.10
2019-04-04T19:48:41.351Z,90.30
2019-04-04T19:51:09.541Z,90.20
2019-04-04T19:53:37.821Z,89.20
2019-04-04T19:56:06.755Z,89.00
2019-04-04T19:58:34.964Z,89.10
2019-04-04T20:01:04.970Z,89.50
2019-04-04T20:03:33.237Z,90.00
2019-04-04T20:06:01.437Z,89.80
2019-04-04T20:08:29.625Z,89.10
2019-04-04T20:10:57.708Z,88.50
2019-04-04T20:13:31.042Z,88.20
2019-04-04T20:15:56.235Z,88.40
2019-04-04T20:18:24.402Z,88.10
2019-04-04T20:20:52.849Z,88.60
2019-04-04T20:23:21.078Z,88.80
2019-04-04T20:25:49.283Z,89.70
2019-04-04T20:28:17.463Z,90.00
2019-04-04T20:30:46.349Z,88.50
2019-04-04T20:33:14.441Z,88.60
2019-04-04T20:35:42.601Z,88.90
2019-04-04T20:38:12.419Z,89.30
2019-04-04T20:40:40.531Z,89.80
2019-04-04T20:43:08.791Z,90.20
2019-04-04T20:45:37.765Z,90.40
2019-04-04T20:48:06.139Z,90.60
2019-04-04T20:50:35.174Z,90.90
2019-04-04T20:53:03.463Z,91.70
2019-04-04T20:55:31.586Z,92.60
2019-04-04T20:57:59.847Z,93.30
2019-04-04T21:00:27.852Z,93.60
2019-04-04T21:02:56.165Z,93.90
2019-04-04T21:05:24.197Z,94.40
2019-04-04T21:07:52.325Z,93.90
2019-04-04T21:10:20.444Z,93.90
2019-04-04T21:12:48.669Z,94.10
2019-04-04T21:15:16.895Z,94.00
2019-04-04T21:17:45.212Z,93.90
2019-04-04T21:20:15.514Z,94.20
2019-04-04T21:22:43.879Z,94.20
2019-04-04T21:25:12.778Z,94.10
2019-04-04T21:27:41.058Z,93.60
2019-04-04T21:30:09.322Z,93.90
2019-04-04T21:32:37.462Z,94.00
2019-04-04T21:35:05.766Z,94.10
2019-04-04T21:37:33.840Z,93.90
2019-04-04T21:40:02.006Z,94.40
2019-04-04T21:42:31.119Z,94.80
2019-04-04T21:45:00.621Z,94.90
2019-04-04T21:47:28.814Z,94.50
2019-04-04T21:49:56.946Z,94.90
2019-04-04T21:52:25.227Z,95.20
2019-04-04T21:54:53.320Z,95.50
2019-04-04T21:57:21.559Z,94.90
2019-04-04T21:59:49.502Z,94.80
2019-04-04T22:02:17.530Z,94.50
2019-04-04T22:04:45.694Z,94.70
2019-04-04T22:07:13.982Z,94.50
2019-04-04T22:09:42.182Z,94.50
2019-04-04T22:12:10.183Z,94.00
2019-04-04T22:14:38.227Z,94.00
2019-04-04T22:17:06.361Z,94.40
2019-04-04T22:19:34.425Z,94.40
2019-04-04T22:22:03.429Z,94.30
2019-04-04T22:24:31.420Z,94.30
2019-04-04T22:26:59.778Z,94.10
2019-04-04T22:29:27.955Z,94.50
2019-04-04T22:31:56.110Z,94.70
2019-04-04T22:34:24.117Z,94.90
2019-04-04T22:36:52.135Z,95.10
2019-04-04T22:39:20.312Z,95.40
2019-04-04T22:41:48.327Z,95.30
2019-04-04T22:44:16.494Z,95.20
2019-04-04T22:46:44.647Z,95.30
2019-04-04T22:49:12.644Z,95.00
2019-04-04T22:51:40.695Z,95.40
2019-04-04T22:54:08.781Z,94.90
2019-04-04T22:56:36.850Z,94.60
2019-04-04T22:59:05.042Z,94.80
2019-04-04T23:01:33.294Z,94.40
2019-04-04T23:04:01.407Z,93.90
2019-04-04T23:06:29.442Z,93.60
2019-04-04T23:08:57.435Z,93.40
2019-04-04T23:11:25.446Z,93.40
2019-04-04T23:13:54.243Z,93.60
2019-04-04T23:16:22.216Z,93.50
2019-04-04T23:18:50.243Z,93.40
2019-04-04T23:21:18.245Z,93.30
2019-04-04T23:23:47.305Z,93.70
2019-04-04T23:26:15.316Z,94.20
2019-04-04T23:28:43.381Z,94.10
2019-04-04T23:31:11.408Z,94.30
2019-04-04T23:33:39.487Z,93.80
2019-04-04T23:36:07.543Z,94.90
2019-04-04T23:38:35.620Z,95.30
2019-04-04T23:41:03.658Z,95.60
2019-04-04T23:43:31.652Z,95.80
2019-04-04T23:45:59.668Z,95.80
2019-04-04T23:48:27.682Z,95.60
2019-04-04T23:50:55.657Z,96.00
2019-04-04T23:53:23.817Z,96.20
2019-04-04T23:55:51.854Z,96.20
2019-04-04T23:58:19.856Z,96.20
